sensor_id;sensor_type;location;lat;lon;timestamp;pressure;altitude;pressure_sealevel;temperature
76541;BMP280;65385;55.772;37.658;2023-05-18T00:00:39;100312.19;;;15.92
76541;BMP280;65385;55.772;37.658;2023-05-18T00:01:40;100305.59;;;15.90
76541;BMP280;65385;55.772;37.658;2023-05-18T00:02:41;100313.81;;;15.88
76541;BMP280;65385;55.772;37.658;2023-05-18T00:03:41;100307.50;;;15.84
76541;BMP280;65385;55.772;37.658;2023-05-18T00:04:42;100312.28;;;15.82
76541;BMP280;65385;55.772;37.658;2023-05-18T00:05:43;100308.91;;;15.82
76541;BMP280;65385;55.772;37.658;2023-05-18T00:06:44;100304.94;;;15.79
76541;BMP280;65385;55.772;37.658;2023-05-18T00:07:45;100310.47;;;15.78
76541;BMP280;65385;55.772;37.658;2023-05-18T00:08:46;100311.56;;;15.77
76541;BMP280;65385;55.772;37.658;2023-05-18T00:09:47;100311.56;;;15.77
76541;BMP280;65385;55.772;37.658;2023-05-18T00:10:47;100310.28;;;15.74
76541;BMP280;65385;55.772;37.658;2023-05-18T00:11:48;100311.34;;;15.73
76541;BMP280;65385;55.772;37.658;2023-05-18T00:12:49;100310.84;;;15.71
76541;BMP280;65385;55.772;37.658;2023-05-18T00:13:49;100309.75;;;15.72
76541;BMP280;65385;55.772;37.658;2023-05-18T00:14:50;100311.91;;;15.70
76541;BMP280;65385;55.772;37.658;2023-05-18T00:15:50;100320.06;;;15.69
76541;BMP280;65385;55.772;37.658;2023-05-18T00:16:51;100312.47;;;15.67
76541;BMP280;65385;55.772;37.658;2023-05-18T00:17:54;100311.97;;;15.65
76541;BMP280;65385;55.772;37.658;2023-05-18T00:18:56;100314.84;;;15.64
76541;BMP280;65385;55.772;37.658;2023-05-18T00:19:57;100312.22;;;15.64
76541;BMP280;65385;55.772;37.658;2023-05-18T00:20:58;100321.97;;;15.63
76541;BMP280;65385;55.772;37.658;2023-05-18T00:21:59;100312.78;;;15.61
76541;BMP280;65385;55.772;37.658;2023-05-18T00:23:01;100318.34;;;15.59
76541;BMP280;65385;55.772;37.658;2023-05-18T00:24:02;100302.78;;;15.58
76541;BMP280;65385;55.772;37.658;2023-05-18T00:25:03;100310.97;;;15.56
76541;BMP280;65385;55.772;37.658;2023-05-18T00:26:04;100316.25;;;15.56
76541;BMP280;65385;55.772;37.658;2023-05-18T00:27:05;100317.31;;;15.55
76541;BMP280;65385;55.772;37.658;2023-05-18T00:28:06;100310.75;;;15.53
76541;BMP280;65385;55.772;37.658;2023-05-18T00:29:07;100307.59;;;15.51
76541;BMP280;65385;55.772;37.658;2023-05-18T00:30:08;100313.16;;;15.49
76541;BMP280;65385;55.772;37.658;2023-05-18T00:31:09;100313.16;;;15.49
76541;BMP280;65385;55.772;37.658;2023-05-18T00:32:10;100318.69;;;15.48
76541;BMP280;65385;55.772;37.658;2023-05-18T00:33:11;100311.03;;;15.46
76541;BMP280;65385;55.772;37.658;2023-05-18T00:34:13;100310.56;;;15.44
76541;BMP280;65385;55.772;37.658;2023-05-18T00:35:14;100325.31;;;15.45
76541;BMP280;65385;55.772;37.658;2023-05-18T00:36:14;100322.97;;;15.43
76541;BMP280;65385;55.772;37.658;2023-05-18T00:37:15;100314.28;;;15.43
76541;BMP280;65385;55.772;37.658;2023-05-18T00:38:16;100320.34;;;15.43
76541;BMP280;65385;55.772;37.658;2023-05-18T00:39:17;100313.97;;;15.44
76541;BMP280;65385;55.772;37.658;2023-05-18T00:40:17;100313.97;;;15.44
76541;BMP280;65385;55.772;37.658;2023-05-18T00:41:18;100322.97;;;15.43
76541;BMP280;65385;55.772;37.658;2023-05-18T00:42:18;100311.63;;;15.43
76541;BMP280;65385;55.772;37.658;2023-05-18T00:43:20;100311.63;;;15.43
76541;BMP280;65385;55.772;37.658;2023-05-18T00:44:20;100310.03;;;15.42
76541;BMP280;65385;55.772;37.658;2023-05-18T00:45:21;100318.75;;;15.42
76541;BMP280;65385;55.772;37.658;2023-05-18T00:46:23;100325.59;;;15.43
76541;BMP280;65385;55.772;37.658;2023-05-18T00:47:24;100320.59;;;15.42
76541;BMP280;65385;55.772;37.658;2023-05-18T00:48:25;100316.91;;;15.43
76541;BMP280;65385;55.772;37.658;2023-05-18T00:49:26;100314.28;;;15.43
76541;BMP280;65385;55.772;37.658;2023-05-18T00:50:27;100310.03;;;15.42
76541;BMP280;65385;55.772;37.658;2023-05-18T00:51:27;100317.44;;;15.40
76541;BMP280;65385;55.772;37.658;2023-05-18T00:52:29;100319.59;;;15.38
76541;BMP280;65385;55.772;37.658;2023-05-18T00:53:32;100322.22;;;15.38
76541;BMP280;65385;55.772;37.658;2023-05-18T00:54:33;100321.69;;;15.36
76541;BMP280;65385;55.772;37.658;2023-05-18T00:55:35;100324.34;;;15.36
76541;BMP280;65385;55.772;37.658;2023-05-18T00:56:36;100324.59;;;15.34
76541;BMP280;65385;55.772;37.658;2023-05-18T00:57:42;100320.38;;;15.33
76541;BMP280;65385;55.772;37.658;2023-05-18T00:58:44;100315.91;;;15.34
76541;BMP280;65385;55.772;37.658;2023-05-18T00:59:47;100322.25;;;15.33
76541;BMP280;65385;55.772;37.658;2023-05-18T01:00:48;100326.75;;;15.32
76541;BMP280;65385;55.772;37.658;2023-05-18T01:01:49;100318.03;;;15.32
76541;BMP280;65385;55.772;37.658;2023-05-18T01:02:50;100318.03;;;15.32
76541;BMP280;65385;55.772;37.658;2023-05-18T01:03:53;100329.38;;;15.32
76541;BMP280;65385;55.772;37.658;2023-05-18T01:04:55;100327.78;;;15.31
76541;BMP280;65385;55.772;37.658;2023-05-18T01:05:56;100319.88;;;15.31
76541;BMP280;65385;55.772;37.658;2023-05-18T01:06:57;100321.22;;;15.29
76541;BMP280;65385;55.772;37.658;2023-05-18T01:08:06;100323.88;;;15.29
76541;BMP280;65385;55.772;37.658;2023-05-18T01:09:09;100329.13;;;15.29
76541;BMP280;65385;55.772;37.658;2023-05-18T01:10:12;100325.72;;;15.28
76541;BMP280;65385;55.772;37.658;2023-05-18T01:11:20;100322.03;;;15.29
76541;BMP280;65385;55.772;37.658;2023-05-18T01:12:24;100323.13;;;15.23
76541;BMP280;65385;55.772;37.658;2023-05-18T01:13:41;100323.94;;;15.19
76541;BMP280;65385;55.772;37.658;2023-05-18T01:14:48;100325.78;;;15.18
76541;BMP280;65385;55.772;37.658;2023-05-18T01:15:56;100322.09;;;15.19
76541;BMP280;65385;55.772;37.658;2023-05-18T01:18:22;100326.06;;;15.22
76541;BMP280;65385;55.772;37.658;2023-05-18T01:20:11;100327.09;;;15.21
76541;BMP280;65385;55.772;37.658;2023-05-18T01:21:35;100326.03;;;15.17
76541;BMP280;65385;55.772;37.658;2023-05-18T01:22:42;100319.72;;;15.18
76541;BMP280;65385;55.772;37.658;2023-05-18T01:25:20;100320.97;;;15.25
76541;BMP280;65385;55.772;37.658;2023-05-18T01:26:32;100323.88;;;15.29
76541;BMP280;65385;55.772;37.658;2023-05-18T01:27:37;100315.09;;;15.33
76541;BMP280;65385;55.772;37.658;2023-05-18T01:28:44;100315.84;;;15.39
76541;BMP280;65385;55.772;37.658;2023-05-18T01:29:47;100309.50;;;15.45
76541;BMP280;65385;55.772;37.658;2023-05-18T01:30:48;100309.44;;;15.50
76541;BMP280;65385;55.772;37.658;2023-05-18T01:31:49;100320.47;;;15.57
76541;BMP280;65385;55.772;37.658;2023-05-18T01:32:50;100315.66;;;15.64
76541;BMP280;65385;55.772;37.658;2023-05-18T01:33:51;100318.47;;;15.73
76541;BMP280;65385;55.772;37.658;2023-05-18T01:34:51;100316.28;;;15.80
76541;BMP280;65385;55.772;37.658;2023-05-18T01:35:52;100309.03;;;15.90
76541;BMP280;65385;55.772;37.658;2023-05-18T01:36:53;100318.44;;;16.02
76541;BMP280;65385;55.772;37.658;2023-05-18T01:37:54;100315.66;;;16.12
76541;BMP280;65385;55.772;37.658;2023-05-18T01:38:56;100318.72;;;16.24
76541;BMP280;65385;55.772;37.658;2023-05-18T01:40:01;100315.34;;;16.37
76541;BMP280;65385;55.772;37.658;2023-05-18T01:42:19;100311.28;;;16.63
76541;BMP280;65385;55.772;37.658;2023-05-18T01:43:30;100322.72;;;16.77
76541;BMP280;65385;55.772;37.658;2023-05-18T01:44:39;100315.16;;;16.89
76541;BMP280;65385;55.772;37.658;2023-05-18T01:45:43;100315.72;;;17.05
76541;BMP280;65385;55.772;37.658;2023-05-18T01:47:56;100323.63;;;17.37
76541;BMP280;65385;55.772;37.658;2023-05-18T01:49:01;100321.50;;;17.53
76541;BMP280;65385;55.772;37.658;2023-05-18T01:50:12;100316.44;;;17.70
76541;BMP280;65385;55.772;37.658;2023-05-18T01:51:16;100309.00;;;17.86
76541;BMP280;65385;55.772;37.658;2023-05-18T01:52:20;100311.31;;;18.01
76541;BMP280;65385;55.772;37.658;2023-05-18T01:53:25;100319.72;;;18.16
76541;BMP280;65385;55.772;37.658;2023-05-18T01:54:28;100319.69;;;18.30
76541;BMP280;65385;55.772;37.658;2023-05-18T01:55:30;100321.44;;;18.48
76541;BMP280;65385;55.772;37.658;2023-05-18T01:56:32;100316.59;;;18.64
76541;BMP280;65385;55.772;37.658;2023-05-18T01:57:35;100311.41;;;18.81
76541;BMP280;65385;55.772;37.658;2023-05-18T01:58:36;100311.66;;;18.93
76541;BMP280;65385;55.772;37.658;2023-05-18T01:59:38;100302.34;;;19.04
76541;BMP280;65385;55.772;37.658;2023-05-18T02:00:39;100309.94;;;19.19
76541;BMP280;65385;55.772;37.658;2023-05-18T02:01:40;100312.69;;;19.36
76541;BMP280;65385;55.772;37.658;2023-05-18T02:02:40;100318.03;;;19.54
76541;BMP280;65385;55.772;37.658;2023-05-18T02:03:42;100317.63;;;19.69
76541;BMP280;65385;55.772;37.658;2023-05-18T02:04:43;100316.13;;;19.85
76541;BMP280;65385;55.772;37.658;2023-05-18T02:05:45;100315.69;;;20.00
76541;BMP280;65385;55.772;37.658;2023-05-18T02:06:46;100310.88;;;20.19
76541;BMP280;65385;55.772;37.658;2023-05-18T02:07:46;100311.47;;;20.33
76541;BMP280;65385;55.772;37.658;2023-05-18T02:08:47;100314.31;;;20.54
76541;BMP280;65385;55.772;37.658;2023-05-18T02:09:48;100311.63;;;20.71
76541;BMP280;65385;55.772;37.658;2023-05-18T02:10:49;100313.78;;;20.86
76541;BMP280;65385;55.772;37.658;2023-05-18T02:11:50;100309.34;;;20.99
76541;BMP280;65385;55.772;37.658;2023-05-18T02:12:51;100308.75;;;21.10
76541;BMP280;65385;55.772;37.658;2023-05-18T02:13:53;100310.41;;;21.15
76541;BMP280;65385;55.772;37.658;2023-05-18T02:14:54;100312.75;;;21.25
76541;BMP280;65385;55.772;37.658;2023-05-18T02:15:55;100317.25;;;21.33
76541;BMP280;65385;55.772;37.658;2023-05-18T02:16:56;100316.72;;;21.48
76541;BMP280;65385;55.772;37.658;2023-05-18T02:17:56;100316.28;;;21.67
76541;BMP280;65385;55.772;37.658;2023-05-18T02:18:57;100316.06;;;21.80
76541;BMP280;65385;55.772;37.658;2023-05-18T02:19:59;100318.16;;;21.96
76541;BMP280;65385;55.772;37.658;2023-05-18T02:21:00;100319.44;;;22.10
76541;BMP280;65385;55.772;37.658;2023-05-18T02:22:01;100314.16;;;22.22
76541;BMP280;65385;55.772;37.658;2023-05-18T02:23:01;100311.28;;;22.36
76541;BMP280;65385;55.772;37.658;2023-05-18T02:24:02;100323.22;;;22.50
76541;BMP280;65385;55.772;37.658;2023-05-18T02:25:03;100317.56;;;22.64
76541;BMP280;65385;55.772;37.658;2023-05-18T02:26:07;100315.06;;;22.80
76541;BMP280;65385;55.772;37.658;2023-05-18T02:27:07;100308.97;;;22.91
76541;BMP280;65385;55.772;37.658;2023-05-18T02:28:08;100320.44;;;23.04
76541;BMP280;65385;55.772;37.658;2023-05-18T02:29:08;100315.44;;;23.14
76541;BMP280;65385;55.772;37.658;2023-05-18T02:30:11;100311.44;;;23.33
76541;BMP280;65385;55.772;37.658;2023-05-18T02:31:12;100316.31;;;23.43
76541;BMP280;65385;55.772;37.658;2023-05-18T02:32:13;100307.63;;;23.58
76541;BMP280;65385;55.772;37.658;2023-05-18T02:33:13;100317.19;;;23.71
76541;BMP280;65385;55.772;37.658;2023-05-18T02:34:14;100311.38;;;23.81
76541;BMP280;65385;55.772;37.658;2023-05-18T02:35:16;100317.34;;;23.90
76541;BMP280;65385;55.772;37.658;2023-05-18T02:36:18;100320.84;;;24.06
76541;BMP280;65385;55.772;37.658;2023-05-18T02:37:21;100311.69;;;24.19
76541;BMP280;65385;55.772;37.658;2023-05-18T02:38:22;100316.00;;;24.24
76541;BMP280;65385;55.772;37.658;2023-05-18T02:39:23;100316.75;;;24.36
76541;BMP280;65385;55.772;37.658;2023-05-18T02:40:23;100313.59;;;24.46
76541;BMP280;65385;55.772;37.658;2023-05-18T02:41:24;100318.59;;;24.64
76541;BMP280;65385;55.772;37.658;2023-05-18T02:42:25;100314.69;;;24.77
76541;BMP280;65385;55.772;37.658;2023-05-18T02:43:27;100317.22;;;24.85
76541;BMP280;65385;55.772;37.658;2023-05-18T02:44:28;100314.81;;;24.96
76541;BMP280;65385;55.772;37.658;2023-05-18T02:45:28;100316.88;;;25.02
76541;BMP280;65385;55.772;37.658;2023-05-18T02:46:30;100318.59;;;25.10
76541;BMP280;65385;55.772;37.658;2023-05-18T02:47:31;100313.25;;;25.26
76541;BMP280;65385;55.772;37.658;2023-05-18T02:48:32;100313.19;;;25.42
76541;BMP280;65385;55.772;37.658;2023-05-18T02:49:33;100314.09;;;25.49
76541;BMP280;65385;55.772;37.658;2023-05-18T02:50:33;100316.66;;;25.61
76541;BMP280;65385;55.772;37.658;2023-05-18T02:51:34;100319.81;;;25.63
76541;BMP280;65385;55.772;37.658;2023-05-18T02:52:36;100318.19;;;25.78
76541;BMP280;65385;55.772;37.658;2023-05-18T02:53:37;100321.94;;;25.92
76541;BMP280;65385;55.772;37.658;2023-05-18T02:54:43;100322.41;;;25.98
76541;BMP280;65385;55.772;37.658;2023-05-18T02:55:53;100326.00;;;26.06
76541;BMP280;65385;55.772;37.658;2023-05-18T02:57:01;100315.53;;;26.20
76541;BMP280;65385;55.772;37.658;2023-05-18T02:58:15;100318.91;;;26.17
76541;BMP280;65385;55.772;37.658;2023-05-18T02:59:36;100321.16;;;26.34
76541;BMP280;65385;55.772;37.658;2023-05-18T03:00:38;100322.06;;;26.41
76541;BMP280;65385;55.772;37.658;2023-05-18T03:01:38;100323.06;;;26.56
76541;BMP280;65385;55.772;37.658;2023-05-18T03:02:40;100317.81;;;26.63
76541;BMP280;65385;55.772;37.658;2023-05-18T03:03:43;100318.66;;;26.67
76541;BMP280;65385;55.772;37.658;2023-05-18T03:04:44;100317.69;;;26.79
76541;BMP280;65385;55.772;37.658;2023-05-18T03:05:46;100319.09;;;26.95
76541;BMP280;65385;55.772;37.658;2023-05-18T03:06:47;100316.22;;;27.07
76541;BMP280;65385;55.772;37.658;2023-05-18T03:07:52;100311.34;;;27.16
76541;BMP280;65385;55.772;37.658;2023-05-18T03:08:55;100309.94;;;27.26
76541;BMP280;65385;55.772;37.658;2023-05-18T03:10:03;100313.41;;;27.26
76541;BMP280;65385;55.772;37.658;2023-05-18T03:11:06;100325.66;;;27.24
76541;BMP280;65385;55.772;37.658;2023-05-18T03:12:07;100313.84;;;27.32
76541;BMP280;65385;55.772;37.658;2023-05-18T03:13:08;100315.09;;;27.38
76541;BMP280;65385;55.772;37.658;2023-05-18T03:14:08;100313.78;;;27.55
76541;BMP280;65385;55.772;37.658;2023-05-18T03:15:09;100317.47;;;27.73
76541;BMP280;65385;55.772;37.658;2023-05-18T03:16:11;100311.75;;;27.78
76541;BMP280;65385;55.772;37.658;2023-05-18T03:17:12;100305.22;;;27.79
76541;BMP280;65385;55.772;37.658;2023-05-18T03:18:14;100313.88;;;27.95
76541;BMP280;65385;55.772;37.658;2023-05-18T03:19:15;100320.97;;;28.13
76541;BMP280;65385;55.772;37.658;2023-05-18T03:20:16;100316.47;;;28.25
76541;BMP280;65385;55.772;37.658;2023-05-18T03:21:16;100309.25;;;28.36
76541;BMP280;65385;55.772;37.658;2023-05-18T03:22:17;100320.94;;;28.50
76541;BMP280;65385;55.772;37.658;2023-05-18T03:23:18;100319.53;;;28.70
76541;BMP280;65385;55.772;37.658;2023-05-18T03:24:20;100316.88;;;28.77
76541;BMP280;65385;55.772;37.658;2023-05-18T03:25:22;100322.75;;;28.90
76541;BMP280;65385;55.772;37.658;2023-05-18T03:26:25;100313.59;;;29.01
76541;BMP280;65385;55.772;37.658;2023-05-18T03:27:27;100318.53;;;28.92
76541;BMP280;65385;55.772;37.658;2023-05-18T03:28:30;100318.22;;;29.05
76541;BMP280;65385;55.772;37.658;2023-05-18T03:29:31;100323.69;;;29.12
76541;BMP280;65385;55.772;37.658;2023-05-18T03:30:35;100318.31;;;29.19
76541;BMP280;65385;55.772;37.658;2023-05-18T03:31:36;100321.81;;;29.26
76541;BMP280;65385;55.772;37.658;2023-05-18T03:32:37;100323.69;;;29.19
76541;BMP280;65385;55.772;37.658;2023-05-18T03:33:38;100322.19;;;29.25
76541;BMP280;65385;55.772;37.658;2023-05-18T03:34:39;100325.66;;;29.29
76541;BMP280;65385;55.772;37.658;2023-05-18T03:35:39;100317.09;;;29.13
76541;BMP280;65385;55.772;37.658;2023-05-18T03:36:41;100326.44;;;29.26
76541;BMP280;65385;55.772;37.658;2023-05-18T03:37:43;100323.81;;;29.40
76541;BMP280;65385;55.772;37.658;2023-05-18T03:38:45;100319.22;;;29.58
76541;BMP280;65385;55.772;37.658;2023-05-18T03:39:46;100324.63;;;29.65
76541;BMP280;65385;55.772;37.658;2023-05-18T03:40:47;100323.88;;;29.71
76541;BMP280;65385;55.772;37.658;2023-05-18T03:41:48;100317.38;;;29.87
76541;BMP280;65385;55.772;37.658;2023-05-18T03:42:48;100320.84;;;29.83
76541;BMP280;65385;55.772;37.658;2023-05-18T03:43:49;100315.00;;;29.64
76541;BMP280;65385;55.772;37.658;2023-05-18T03:44:50;100326.56;;;29.57
76541;BMP280;65385;55.772;37.658;2023-05-18T03:45:51;100321.97;;;29.72
76541;BMP280;65385;55.772;37.658;2023-05-18T03:46:52;100323.94;;;29.75
76541;BMP280;65385;55.772;37.658;2023-05-18T03:47:53;100320.09;;;29.90
76541;BMP280;65385;55.772;37.658;2023-05-18T03:48:53;100315.47;;;29.87
76541;BMP280;65385;55.772;37.658;2023-05-18T03:49:58;100322.00;;;29.86
76541;BMP280;65385;55.772;37.658;2023-05-18T03:50:59;100328.97;;;30.08
76541;BMP280;65385;55.772;37.658;2023-05-18T03:52:03;100327.06;;;29.98
76541;BMP280;65385;55.772;37.658;2023-05-18T03:53:04;100328.22;;;29.90
76541;BMP280;65385;55.772;37.658;2023-05-18T03:54:05;100322.44;;;30.09
76541;BMP280;65385;55.772;37.658;2023-05-18T03:55:06;100324.00;;;30.21
76541;BMP280;65385;55.772;37.658;2023-05-18T03:56:07;100328.63;;;30.20
76541;BMP280;65385;55.772;37.658;2023-05-18T03:57:08;100333.63;;;30.29
76541;BMP280;65385;55.772;37.658;2023-05-18T03:58:08;100329.38;;;30.17
76541;BMP280;65385;55.772;37.658;2023-05-18T03:59:09;100324.75;;;30.11
76541;BMP280;65385;55.772;37.658;2023-05-18T04:00:09;100332.47;;;30.12
76541;BMP280;65385;55.772;37.658;2023-05-18T04:01:19;100328.63;;;30.13
76541;BMP280;65385;55.772;37.658;2023-05-18T04:02:23;100335.19;;;30.33
76541;BMP280;65385;55.772;37.658;2023-05-18T04:03:24;100327.84;;;30.44
76541;BMP280;65385;55.772;37.658;2023-05-18T04:04:26;100333.63;;;30.71
76541;BMP280;65385;55.772;37.658;2023-05-18T04:05:27;100335.88;;;30.94
76541;BMP280;65385;55.772;37.658;2023-05-18T04:06:27;100337.00;;;31.03
76541;BMP280;65385;55.772;37.658;2023-05-18T04:07:28;100327.75;;;31.01
76541;BMP280;65385;55.772;37.658;2023-05-18T04:08:28;100343.25;;;30.93
76541;BMP280;65385;55.772;37.658;2023-05-18T04:09:29;100331.69;;;30.79
76541;BMP280;65385;55.772;37.658;2023-05-18T04:10:30;100337.84;;;30.86
76541;BMP280;65385;55.772;37.658;2023-05-18T04:11:30;100342.44;;;30.96
76541;BMP280;65385;55.772;37.658;2023-05-18T04:12:31;100334.66;;;31.09
76541;BMP280;65385;55.772;37.658;2023-05-18T04:13:31;100335.03;;;31.11
76541;BMP280;65385;55.772;37.658;2023-05-18T04:14:32;100343.56;;;31.13
76541;BMP280;65385;55.772;37.658;2023-05-18T04:15:33;100336.97;;;31.21
76541;BMP280;65385;55.772;37.658;2023-05-18T04:16:34;100341.59;;;31.20
76541;BMP280;65385;55.772;37.658;2023-05-18T04:17:34;100332.28;;;31.32
76541;BMP280;65385;55.772;37.658;2023-05-18T04:18:35;100337.66;;;31.39
76541;BMP280;65385;55.772;37.658;2023-05-18T04:19:36;100335.69;;;31.50
76541;BMP280;65385;55.772;37.658;2023-05-18T04:20:37;100339.09;;;31.61
76541;BMP280;65385;55.772;37.658;2023-05-18T04:21:38;100337.53;;;31.60
76541;BMP280;65385;55.772;37.658;2023-05-18T04:22:44;100337.13;;;31.65
76541;BMP280;65385;55.772;37.658;2023-05-18T04:23:48;100339.44;;;31.67
76541;BMP280;65385;55.772;37.658;2023-05-18T04:24:49;100333.69;;;31.54
76541;BMP280;65385;55.772;37.658;2023-05-18T04:25:54;100337.81;;;31.76
76541;BMP280;65385;55.772;37.658;2023-05-18T04:26:55;100338.97;;;31.79
76541;BMP280;65385;55.772;37.658;2023-05-18T04:27:58;100339.81;;;31.72
76541;BMP280;65385;55.772;37.658;2023-05-18T04:28:59;100338.66;;;31.66
76541;BMP280;65385;55.772;37.658;2023-05-18T04:30:00;100331.63;;;31.79
76541;BMP280;65385;55.772;37.658;2023-05-18T04:31:00;100333.22;;;31.73
76541;BMP280;65385;55.772;37.658;2023-05-18T04:32:02;100326.53;;;31.88
76541;BMP280;65385;55.772;37.658;2023-05-18T04:33:03;100327.25;;;31.96
76541;BMP280;65385;55.772;37.658;2023-05-18T04:34:05;100330.59;;;32.14
76541;BMP280;65385;55.772;37.658;2023-05-18T04:35:08;100334.69;;;32.36
76541;BMP280;65385;55.772;37.658;2023-05-18T04:36:10;100331.84;;;32.46
76541;BMP280;65385;55.772;37.658;2023-05-18T04:37:10;100330.56;;;32.58
76541;BMP280;65385;55.772;37.658;2023-05-18T04:38:12;100334.84;;;32.56
76541;BMP280;65385;55.772;37.658;2023-05-18T04:39:13;100333.53;;;32.74
76541;BMP280;65385;55.772;37.658;2023-05-18T04:40:13;100331.59;;;32.71
76541;BMP280;65385;55.772;37.658;2023-05-18T04:41:16;100328.50;;;32.73
76541;BMP280;65385;55.772;37.658;2023-05-18T04:42:20;100329.88;;;32.88
76541;BMP280;65385;55.772;37.658;2023-05-18T04:43:21;100330.31;;;32.83
76541;BMP280;65385;55.772;37.658;2023-05-18T04:44:31;100330.59;;;32.92
76541;BMP280;65385;55.772;37.658;2023-05-18T04:45:34;100321.88;;;32.74
76541;BMP280;65385;55.772;37.658;2023-05-18T04:46:35;100318.25;;;32.87
76541;BMP280;65385;55.772;37.658;2023-05-18T04:47:41;100325.09;;;32.99
76541;BMP280;65385;55.772;37.658;2023-05-18T04:48:42;100328.03;;;33.11
76541;BMP280;65385;55.772;37.658;2023-05-18T04:49:43;100328.75;;;33.15
76541;BMP280;65385;55.772;37.658;2023-05-18T04:50:43;100318.47;;;33.30
76541;BMP280;65385;55.772;37.658;2023-05-18T04:51:44;100325.31;;;33.11
76541;BMP280;65385;55.772;37.658;2023-05-18T04:52:47;100332.50;;;32.95
76541;BMP280;65385;55.772;37.658;2023-05-18T04:53:50;100322.44;;;32.95
76541;BMP280;65385;55.772;37.658;2023-05-18T04:54:50;100319.13;;;33.11
76541;BMP280;65385;55.772;37.658;2023-05-18T04:55:51;100324.44;;;32.88
76541;BMP280;65385;55.772;37.658;2023-05-18T04:56:52;100319.59;;;32.69
76541;BMP280;65385;55.772;37.658;2023-05-18T04:57:53;100323.13;;;32.99
76541;BMP280;65385;55.772;37.658;2023-05-18T04:58:57;100318.88;;;33.28
76541;BMP280;65385;55.772;37.658;2023-05-18T04:59:59;100318.66;;;33.46
76541;BMP280;65385;55.772;37.658;2023-05-18T05:00:59;100321.00;;;33.44
76541;BMP280;65385;55.772;37.658;2023-05-18T05:02:01;100322.38;;;33.29
76541;BMP280;65385;55.772;37.658;2023-05-18T05:03:03;100325.97;;;33.49
76541;BMP280;65385;55.772;37.658;2023-05-18T05:04:04;100324.69;;;33.57
76541;BMP280;65385;55.772;37.658;2023-05-18T05:05:05;100326.50;;;33.64
76541;BMP280;65385;55.772;37.658;2023-05-18T05:06:08;100320.94;;;33.48
76541;BMP280;65385;55.772;37.658;2023-05-18T05:07:09;100323.41;;;33.65
76541;BMP280;65385;55.772;37.658;2023-05-18T05:08:10;100323.34;;;33.42
76541;BMP280;65385;55.772;37.658;2023-05-18T05:09:11;100313.53;;;33.48
76541;BMP280;65385;55.772;37.658;2023-05-18T05:10:13;100326.50;;;33.64
76541;BMP280;65385;55.772;37.658;2023-05-18T05:11:14;100322.03;;;33.77
76541;BMP280;65385;55.772;37.658;2023-05-18T05:12:15;100317.81;;;33.76
76541;BMP280;65385;55.772;37.658;2023-05-18T05:13:16;100323.56;;;33.55
76541;BMP280;65385;55.772;37.658;2023-05-18T05:14:16;100319.91;;;33.38
76541;BMP280;65385;55.772;37.658;2023-05-18T05:15:17;100325.00;;;33.06
76541;BMP280;65385;55.772;37.658;2023-05-18T05:16:18;100324.91;;;33.13
76541;BMP280;65385;55.772;37.658;2023-05-18T05:17:19;100325.25;;;33.15
76541;BMP280;65385;55.772;37.658;2023-05-18T05:18:19;100323.81;;;33.07
76541;BMP280;65385;55.772;37.658;2023-05-18T05:19:20;100320.13;;;33.24
76541;BMP280;65385;55.772;37.658;2023-05-18T05:20:21;100323.41;;;33.38
76541;BMP280;65385;55.772;37.658;2023-05-18T05:21:21;100321.41;;;33.42
76541;BMP280;65385;55.772;37.658;2023-05-18T05:22:22;100316.19;;;33.55
76541;BMP280;65385;55.772;37.658;2023-05-18T05:23:24;100322.88;;;33.74
76541;BMP280;65385;55.772;37.658;2023-05-18T05:24:28;100323.00;;;34.13
76541;BMP280;65385;55.772;37.658;2023-05-18T05:25:29;100323.28;;;33.72
76541;BMP280;65385;55.772;37.658;2023-05-18T05:26:30;100322.81;;;33.54
76541;BMP280;65385;55.772;37.658;2023-05-18T05:27:31;100320.41;;;33.60
76541;BMP280;65385;55.772;37.658;2023-05-18T05:28:31;100324.38;;;33.52
76541;BMP280;65385;55.772;37.658;2023-05-18T05:29:32;100321.53;;;33.85
76541;BMP280;65385;55.772;37.658;2023-05-18T05:30:33;100319.53;;;34.12
76541;BMP280;65385;55.772;37.658;2023-05-18T05:31:34;100318.09;;;34.27
76541;BMP280;65385;55.772;37.658;2023-05-18T05:32:35;100325.38;;;34.34
76541;BMP280;65385;55.772;37.658;2023-05-18T05:33:36;100326.00;;;34.18
76541;BMP280;65385;55.772;37.658;2023-05-18T05:34:37;100327.56;;;34.19
76541;BMP280;65385;55.772;37.658;2023-05-18T05:35:39;100317.94;;;34.34
76541;BMP280;65385;55.772;37.658;2023-05-18T05:36:39;100315.72;;;34.49
76541;BMP280;65385;55.772;37.658;2023-05-18T05:37:40;100322.66;;;34.54
76541;BMP280;65385;55.772;37.658;2023-05-18T05:38:41;100328.22;;;34.66
76541;BMP280;65385;55.772;37.658;2023-05-18T05:39:41;100324.59;;;34.73
76541;BMP280;65385;55.772;37.658;2023-05-18T05:40:42;100323.84;;;34.53
76541;BMP280;65385;55.772;37.658;2023-05-18T05:41:43;100315.44;;;34.43
76541;BMP280;65385;55.772;37.658;2023-05-18T05:42:45;100314.00;;;34.39
76541;BMP280;65385;55.772;37.658;2023-05-18T05:43:46;100321.38;;;34.58
76541;BMP280;65385;55.772;37.658;2023-05-18T05:44:47;100314.44;;;34.77
76541;BMP280;65385;55.772;37.658;2023-05-18T05:45:47;100317.41;;;34.63
76541;BMP280;65385;55.772;37.658;2023-05-18T05:46:48;100318.03;;;34.70
76541;BMP280;65385;55.772;37.658;2023-05-18T05:47:49;100324.31;;;34.87
76541;BMP280;65385;55.772;37.658;2023-05-18T05:48:51;100318.19;;;34.63
76541;BMP280;65385;55.772;37.658;2023-05-18T05:49:52;100324.09;;;34.97
76541;BMP280;65385;55.772;37.658;2023-05-18T05:50:52;100319.56;;;34.91
76541;BMP280;65385;55.772;37.658;2023-05-18T05:51:53;100315.59;;;34.76
76541;BMP280;65385;55.772;37.658;2023-05-18T05:52:54;100321.59;;;34.87